aviador You're here:

KAUO Decoded Metar

AUBURN OPELIKA A in AL, USA
Report Time2018-05-21 16:36:00
UTC Time2018-05-21 16:49:30
Flight Rules mvfr MVFR
Wind100° at 10 kt
W.Decomp.*RWY 11: 9.9 kt HW 1 kt LCW
RWY 18: 2.4 kt HW 9.7 kt LCW
W.Rank100° ranks 4
Current wind is above 100° avg. (6.1)
Visibility9999 m
Phenomena:N/A
Clouds:Overcast 015 Hf
Expected CloudBase > 1,600 ft AGL from Temp-Dew spread
Ceiling1,500 ft
Temp24°C (ISA +11)
Dew Point20°C (78% RH)
QNH1021 hPa
Density Alt2,041 ft
Elevation776 ft
Report Wrong Elevation
Raw Report
KAUO 211636Z AUTO 10010KT 10SM OVC015 24/20 A3015 RMK AO2=

Extra information for KAUO:More info

Metar Taf Metar & Taf Last 4 Metars F.Rules Stats Wind Profile Meteogram Temp Stats Airport Information Weather charts Add Link Nearby VenuesMetar ALERT Operation Metar Decoded Social comments

AIRNAV info for KAUO